Time;durP1;ratioP1;P1;durP2;ratioP2;P2;SDS_P1;SDS_P2;PMS_P1;PMS_P2;Temp;Humidity;BMP_temperature;BMP_pressure;BME280_temperature;BME280_humidity;BME280_pressure;Samples;Min_cycle;Max_cycle;Signal;HPM_P1;HPM_P2
2022/12/23 00:00:57;;;;;;;57.75;26.38;;;6.90;99.90;;;;;;5076601;28;20531;-72
2022/12/23 00:03:23;;;;;;;64.55;26.75;;;6.90;99.90;;;;;;5097274;28;20176;-73
2022/12/23 00:05:49;;;;;;;62.95;26.73;;;6.80;99.90;;;;;;5058563;28;20092;-73
2022/12/23 00:08:15;;;;;;;59.45;26.20;;;6.90;99.90;;;;;;5069949;28;20524;-71
2022/12/23 00:10:41;;;;;;;59.33;28.08;;;6.80;99.90;;;;;;5070145;28;20044;-73
2022/12/23 00:16:10;;;;;;;67.32;28.30;;;6.80;99.90;;;;;;5097653;28;20965;-73
2022/12/23 00:18:37;;;;;;;58.83;26.48;;;6.80;99.90;;;;;;5077247;28;20043;-73
2022/12/23 00:21:05;;;;;;;64.00;29.15;;;6.80;99.90;;;;;;5075867;28;20057;-73
2022/12/23 00:23:32;;;;;;;60.20;27.35;;;6.80;99.90;;;;;;5077872;28;20047;-73
2022/12/23 00:25:58;;;;;;;61.30;27.05;;;6.80;99.90;;;;;;5078563;28;20047;-73
2022/12/23 00:28:25;;;;;;;56.47;25.27;;;6.80;99.90;;;;;;5079309;28;20056;-73
2022/12/23 00:31:02;;;;;;;59.15;26.60;;;6.70;99.90;;;;;;5075627;28;20096;-73
2022/12/23 00:33:31;;;;;;;56.47;27.15;;;6.70;99.90;;;;;;5057857;28;20036;-73
2022/12/23 00:35:57;;;;;;;62.00;27.98;;;6.80;99.90;;;;;;5090833;28;20262;-72
2022/12/23 00:44:02;;;;;;;65.32;27.85;;;6.80;99.90;;;;;;5076854;28;20100;-72
2022/12/23 00:46:28;;;;;;;58.00;27.98;;;6.80;99.90;;;;;;5062291;28;20479;-72
2022/12/23 00:51:38;;;;;;;58.75;26.63;;;6.70;99.90;;;;;;5076965;28;20048;-73
2022/12/23 00:54:04;;;;;;;68.22;29.48;;;6.80;99.90;;;;;;5062131;27;20051;-72
2022/12/23 00:56:30;;;;;;;66.72;28.50;;;6.80;99.90;;;;;;5081974;27;20035;-73
2022/12/23 00:58:55;;;;;;;62.47;28.23;;;6.80;99.90;;;;;;5062536;27;20160;-72
2022/12/23 01:06:54;;;;;;;65.68;26.55;;;6.80;99.90;;;;;;5081239;27;20157;-73
2022/12/23 01:09:20;;;;;;;66.00;29.83;;;6.80;99.90;;;;;;5080829;28;20031;-73
2022/12/23 01:11:45;;;;;;;67.93;29.33;;;6.80;99.90;;;;;;5098604;27;20154;-73
2022/12/23 01:14:12;;;;;;;67.05;29.67;;;6.80;99.90;;;;;;5079340;27;20083;-73
2022/12/23 01:16:38;;;;;;;67.97;30.13;;;6.80;99.90;;;;;;5061430;27;20035;-73
2022/12/23 01:19:05;;;;;;;71.90;29.45;;;6.80;99.90;;;;;;5098889;27;20042;-72
2022/12/23 01:21:31;;;;;;;68.93;30.05;;;7.10;99.90;;;;;;5066342;27;20043;-73
2022/12/23 01:23:57;;;;;;;71.63;29.33;;;6.80;99.90;;;;;;5080848;27;20196;-73
2022/12/23 01:26:23;;;;;;;66.35;28.70;;;6.80;99.90;;;;;;5081205;27;20581;-73
2022/12/23 01:28:54;;;;;;;67.95;28.42;;;6.80;99.90;;;;;;5079236;27;20047;-72
2022/12/23 01:31:21;;;;;;;68.55;28.50;;;6.80;99.90;;;;;;5101446;27;20119;-74
2022/12/23 01:33:47;;;;;;;65.93;29.70;;;6.80;99.90;;;;;;5080954;27;20056;-73
2022/12/23 01:36:13;;;;;;;73.85;28.25;;;6.90;99.90;;;;;;5099438;27;20039;-73
2022/12/23 01:38:39;;;;;;;66.38;28.40;;;6.90;99.90;;;;;;5094166;28;20576;-73
2022/12/23 01:41:05;;;;;;;76.35;29.65;;;6.90;99.90;;;;;;5094377;28;20078;-73
2022/12/23 01:43:47;;;;;;;71.05;30.33;;;6.90;99.90;;;;;;5066856;28;20044;-73
2022/12/23 01:46:13;;;;;;;70.25;29.17;;;6.80;99.90;;;;;;5097316;28;20047;-73
2022/12/23 01:48:40;;;;;;;73.72;29.65;;;7.00;99.90;;;;;;5078221;28;20040;-73
2022/12/23 01:51:12;;;;;;;78.43;31.13;;;7.00;99.90;;;;;;5081102;28;20512;-73
2022/12/23 01:53:42;;;;;;;71.80;29.63;;;6.80;99.90;;;;;;5071970;28;20619;-73
2022/12/23 01:56:13;;;;;;;82.85;31.25;;;6.80;99.90;;;;;;5072122;28;20048;-73
2022/12/23 01:58:42;;;;;;;;;;;6.80;99.90;;;;;;5097072;27;20063;-72
2022/12/23 02:03:58;;;;;;;76.72;30.13;;;6.90;99.90;;;;;;5091984;28;20044;-72
2022/12/23 02:09:39;;;;;;;73.38;28.63;;;6.80;99.90;;;;;;5080935;28;20446;-74
2022/12/23 02:12:38;;;;;;;71.50;29.92;;;6.90;99.90;;;;;;5094579;28;20132;-73
2022/12/23 02:18:03;;;;;;;79.15;29.70;;;6.80;99.90;;;;;;5078996;28;20075;-73
2022/12/23 02:20:48;;;;;;;72.32;29.75;;;6.90;99.90;;;;;;5080289;27;20050;-73
2022/12/23 02:23:35;;;;;;;74.13;30.58;;;6.80;99.90;;;;;;5098248;27;20933;-73
2022/12/23 02:26:38;;;;;;;67.60;27.75;;;6.80;99.90;;;;;;5078622;27;20130;-73
2022/12/23 02:29:23;;;;;;;73.97;29.45;;;6.90;99.90;;;;;;5050478;27;20044;-72
2022/12/23 02:32:04;;;;;;;72.80;28.85;;;6.80;99.90;;;;;;5094636;27;20514;-73
2022/12/23 02:34:48;;;;;;;73.35;29.27;;;6.90;99.90;;;;;;5091729;28;20253;-72
2022/12/23 02:37:39;;;;;;;74.03;29.85;;;6.90;99.90;;;;;;5055728;28;20051;-73
2022/12/23 02:40:31;;;;;;;73.45;28.48;;;6.80;99.90;;;;;;5076086;28;20055;-73
2022/12/23 02:43:07;;;;;;;68.63;27.42;;;6.90;99.90;;;;;;5074637;28;20059;-72
2022/12/23 02:45:53;;;;;;;71.40;28.38;;;6.90;99.90;;;;;;5059033;28;20871;-72
2022/12/23 02:48:28;;;;;;;70.10;27.38;;;6.90;99.90;;;;;;5077695;28;20051;-72
2022/12/23 02:50:56;;;;;;;66.95;26.55;;;6.90;99.90;;;;;;5057355;28;20147;-73
2022/12/23 02:53:29;;;;;;;68.15;27.05;;;6.90;99.90;;;;;;5056024;28;21824;-72
2022/12/23 02:55:58;;;;;;;72.53;27.17;;;6.90;99.90;;;;;;5076828;28;20098;-72
2022/12/23 02:58:29;;;;;;;69.32;27.67;;;6.90;99.90;;;;;;5079607;28;20108;-72
2022/12/23 03:00:57;;;;;;;70.07;27.00;;;7.10;99.90;;;;;;5091898;28;20721;-72
2022/12/23 03:03:25;;;;;;;75.18;29.30;;;6.90;99.90;;;;;;5073295;28;20040;-73
2022/12/23 03:05:52;;;;;;;70.15;26.52;;;6.90;99.90;;;;;;5072861;28;20557;-72
2022/12/23 03:08:33;;;;;;;65.28;27.08;;;7.00;99.90;;;;;;5072797;28;20075;-72
2022/12/23 03:11:15;;;;;;;68.25;26.85;;;6.90;99.90;;;;;;5087712;28;20055;-72
2022/12/23 03:14:09;;;;;;;69.32;27.83;;;6.90;99.90;;;;;;5093145;28;20497;-72
2022/12/23 03:17:09;;;;;;;78.20;28.73;;;6.90;99.90;;;;;;5073927;28;20043;-72
2022/12/23 03:19:51;;;;;;;70.63;27.13;;;6.90;99.90;;;;;;5096963;28;20485;-73
2022/12/23 03:22:17;;;;;;;67.28;26.27;;;6.90;99.90;;;;;;5090037;28;20039;-73
2022/12/23 03:24:54;;;;;;;72.32;27.80;;;6.90;99.90;;;;;;5074062;28;20047;-72
2022/12/23 03:27:33;;;;;;;70.82;28.60;;;6.90;99.90;;;;;;5078304;28;20040;-73
2022/12/23 03:30:04;;;;;;;71.88;28.08;;;7.00;99.90;;;;;;5067345;28;20123;-73
2022/12/23 03:32:39;;;;;;;66.30;26.35;;;6.90;99.90;;;;;;5078270;28;20505;-72
2022/12/23 03:35:10;;;;;;;75.30;27.08;;;6.90;99.90;;;;;;5058252;28;20407;-72
2022/12/23 03:37:40;;;;;;;70.47;27.98;;;6.90;99.90;;;;;;5070806;28;20751;-72
2022/12/23 03:40:27;;;;;;;68.28;26.67;;;6.90;99.90;;;;;;5075731;28;20031;-73
2022/12/23 03:43:03;;;;;;;71.80;25.70;;;6.90;99.90;;;;;;5056773;28;20423;-73
2022/12/23 03:45:40;;;;;;;68.95;25.08;;;6.90;99.90;;;;;;5074029;28;20048;-72
2022/12/23 03:48:22;;;;;;;64.13;24.40;;;6.90;99.90;;;;;;5078252;28;20074;-72
2022/12/23 03:50:52;;;;;;;65.00;25.27;;;6.90;99.90;;;;;;5077465;28;20055;-73
2022/12/23 03:53:35;;;;;;;63.17;24.25;;;6.90;99.90;;;;;;5086846;28;20400;-73
2022/12/23 03:56:11;;;;;;;62.83;24.02;;;6.90;99.90;;;;;;5090502;28;20039;-72
2022/12/23 03:58:40;;;;;;;61.08;24.98;;;6.90;99.90;;;;;;5073953;28;20055;-72
2022/12/23 04:01:17;;;;;;;59.17;24.48;;;6.90;99.90;;;;;;5075381;28;20040;-72
2022/12/23 04:03:54;;;;;;;64.82;24.40;;;6.80;99.90;;;;;;5093628;28;20040;-73
2022/12/23 04:06:23;;;;;;;59.67;24.35;;;6.90;99.90;;;;;;5057575;28;20048;-72
2022/12/23 04:08:49;;;;;;;60.38;24.48;;;7.00;99.90;;;;;;5048709;28;20044;-72
2022/12/23 04:11:15;;;;;;;64.28;25.55;;;6.80;99.90;;;;;;5089152;28;20955;-72
2022/12/23 04:13:41;;;;;;;58.47;24.17;;;6.90;99.90;;;;;;5061363;28;20155;-73
2022/12/23 04:16:10;;;;;;;60.08;25.55;;;6.90;99.90;;;;;;5078918;28;20067;-72
2022/12/23 04:18:36;;;;;;;64.93;24.85;;;6.90;99.90;;;;;;5054584;28;20047;-72
2022/12/23 04:21:02;;;;;;;62.22;25.10;;;6.80;99.90;;;;;;5073893;28;20040;-72
2022/12/23 04:23:28;;;;;;;65.43;25.25;;;6.80;99.90;;;;;;5072733;28;20070;-72
2022/12/23 04:25:53;;;;;;;54.80;23.60;;;6.90;99.90;;;;;;5077621;28;20130;-72
2022/12/23 04:28:19;;;;;;;61.53;24.08;;;6.80;99.90;;;;;;5080404;28;20731;-72
2022/12/23 04:30:45;;;;;;;63.35;24.67;;;6.80;99.90;;;;;;5078898;28;20499;-73
2022/12/23 04:33:11;;;;;;;63.45;24.20;;;6.90;99.90;;;;;;5062932;28;20522;-72
2022/12/23 04:35:38;;;;;;;66.20;24.98;;;6.80;99.90;;;;;;5091322;28;20487;-73
2022/12/23 04:38:03;;;;;;;65.88;25.35;;;6.80;99.90;;;;;;5058596;28;20090;-72
2022/12/23 04:40:29;;;;;;;61.08;24.13;;;6.80;99.90;;;;;;5075447;28;20130;-72
2022/12/23 04:42:55;;;;;;;61.35;24.05;;;6.80;99.90;;;;;;5092833;28;20473;-72
2022/12/23 04:45:20;;;;;;;59.50;23.25;;;6.80;99.90;;;;;;5074388;28;20043;-72
2022/12/23 04:47:46;;;;;;;63.83;24.23;;;6.80;99.90;;;;;;5075245;28;20069;-72
2022/12/23 04:50:15;;;;;;;60.17;23.15;;;6.80;99.90;;;;;;5082588;28;20332;-73
2022/12/23 04:52:42;;;;;;;56.90;22.33;;;6.80;99.90;;;;;;5091137;28;20044;-73
2022/12/23 04:55:09;;;;;;;53.50;21.27;;;6.80;99.90;;;;;;5074117;28;20055;-72
2022/12/23 04:57:34;;;;;;;55.13;22.08;;;6.90;99.90;;;;;;5078879;28;20083;-72
2022/12/23 05:00:00;;;;;;;53.13;22.90;;;6.80;99.90;;;;;;5075884;28;20082;-73
2022/12/23 05:02:26;;;;;;;56.63;23.17;;;6.90;99.90;;;;;;5077461;28;20506;-72
2022/12/23 05:04:51;;;;;;;56.60;22.55;;;6.80;99.90;;;;;;5080853;28;20120;-72
2022/12/23 05:07:17;;;;;;;57.60;22.75;;;6.90;99.90;;;;;;5075624;28;20054;-72
2022/12/23 05:09:43;;;;;;;52.17;21.83;;;6.80;99.90;;;;;;5072829;28;20047;-72
2022/12/23 05:12:09;;;;;;;55.08;22.60;;;6.90;99.90;;;;;;5076619;28;20052;-72
2022/12/23 05:14:34;;;;;;;51.25;20.83;;;6.80;99.90;;;;;;5079258;28;20048;-73
2022/12/23 05:17:00;;;;;;;49.95;21.02;;;6.90;99.90;;;;;;5076202;28;20063;-72
2022/12/23 05:19:26;;;;;;;52.67;21.40;;;6.80;99.90;;;;;;5074456;28;20052;-72
2022/12/23 05:21:51;;;;;;;53.17;20.50;;;6.80;99.90;;;;;;5091973;28;20118;-72
2022/12/23 05:24:17;;;;;;;58.03;22.48;;;6.80;99.90;;;;;;5074507;28;20039;-72
2022/12/23 05:26:47;;;;;;;59.97;21.45;;;6.80;99.90;;;;;;5074746;28;20102;-72
2022/12/23 05:29:14;;;;;;;51.92;21.05;;;6.80;99.90;;;;;;5061147;28;20046;-72
2022/12/23 05:31:39;;;;;;;48.08;20.52;;;6.80;99.90;;;;;;5075296;28;20039;-72
2022/12/23 05:34:05;;;;;;;56.08;21.98;;;6.70;99.90;;;;;;5074339;28;20063;-72
2022/12/23 05:36:32;;;;;;;50.20;20.80;;;6.70;99.90;;;;;;5088260;28;20143;-72
2022/12/23 05:38:58;;;;;;;50.72;20.35;;;6.70;99.90;;;;;;5062678;28;20048;-72
2022/12/23 05:41:23;;;;;;;49.13;20.42;;;6.70;99.90;;;;;;5072128;28;20050;-72
2022/12/23 05:43:49;;;;;;;54.15;21.20;;;7.20;99.90;;;;;;5076383;28;20179;-72
2022/12/23 05:46:15;;;;;;;53.60;20.75;;;6.70;99.90;;;;;;5078429;28;20071;-72
2022/12/23 05:48:40;;;;;;;57.33;21.92;;;6.70;99.90;;;;;;5072448;28;20044;-72
2022/12/23 05:51:06;;;;;;;51.78;20.27;;;6.70;99.90;;;;;;5075667;28;20571;-73
2022/12/23 05:53:32;;;;;;;54.78;21.80;;;6.70;99.90;;;;;;5080991;28;20036;-72
2022/12/23 05:55:58;;;;;;;55.72;20.45;;;6.70;99.90;;;;;;5079080;28;20153;-72
2022/12/23 05:58:24;;;;;;;53.22;20.85;;;6.70;99.90;;;;;;5076262;28;20688;-72
2022/12/23 06:00:49;;;;;;;57.03;21.60;;;6.70;99.90;;;;;;5054144;28;20047;-71
2022/12/23 06:03:15;;;;;;;53.60;20.05;;;6.70;99.90;;;;;;5092253;28;20047;-73
2022/12/23 06:05:42;;;;;;;55.97;21.52;;;6.70;99.90;;;;;;5073660;28;20039;-73
2022/12/23 06:08:08;;;;;;;52.72;20.80;;;6.70;99.90;;;;;;5078478;28;20048;-72
2022/12/23 06:10:34;;;;;;;51.30;19.75;;;6.70;99.90;;;;;;5091229;27;20044;-72
2022/12/23 06:13:00;;;;;;;51.28;20.23;;;6.70;99.90;;;;;;5082386;28;20130;-73
2022/12/23 06:15:25;;;;;;;48.30;18.85;;;6.70;99.90;;;;;;5077931;28;20540;-72
2022/12/23 06:17:51;;;;;;;50.83;20.73;;;6.70;99.90;;;;;;5089280;27;20039;-72
2022/12/23 06:20:17;;;;;;;46.28;19.70;;;6.60;99.90;;;;;;5076376;28;20162;-72
2022/12/23 06:22:42;;;;;;;49.65;19.77;;;6.60;99.90;;;;;;5074375;28;20043;-72
2022/12/23 06:25:08;;;;;;;47.28;18.95;;;6.60;99.90;;;;;;5070580;28;20475;-72
2022/12/23 06:27:34;;;;;;;46.83;18.88;;;6.60;99.90;;;;;;5045334;28;20040;-72
2022/12/23 06:30:00;;;;;;;49.60;19.60;;;6.50;99.90;;;;;;5076502;28;20629;-72
2022/12/23 06:32:25;;;;;;;47.90;18.48;;;6.70;99.90;;;;;;5071650;28;20044;-72
2022/12/23 06:34:52;;;;;;;47.08;18.33;;;6.50;99.90;;;;;;5070689;28;20090;-73
2022/12/23 06:37:21;;;;;;;44.08;18.73;;;6.50;99.90;;;;;;5074494;28;20491;-73
2022/12/23 06:39:47;;;;;;;49.47;19.55;;;6.50;99.90;;;;;;5071470;28;20043;-73
2022/12/23 06:42:13;;;;;;;50.70;19.15;;;6.50;99.90;;;;;;5077600;27;20044;-72
2022/12/23 06:44:39;;;;;;;46.60;18.58;;;6.50;99.90;;;;;;5074688;27;20054;-72
2022/12/23 06:47:04;;;;;;;45.83;18.48;;;6.50;99.90;;;;;;5074195;28;20105;-72
2022/12/23 06:49:30;;;;;;;43.45;18.30;;;6.50;99.90;;;;;;5067510;27;20175;-72
2022/12/23 06:51:56;;;;;;;62.85;18.75;;;6.50;99.90;;;;;;5077098;28;20052;-72
2022/12/23 06:54:21;;;;;;;46.25;18.38;;;6.50;99.90;;;;;;5053776;28;20047;-72
2022/12/23 06:56:47;;;;;;;55.85;20.60;;;6.50;99.90;;;;;;5091386;27;20506;-72
2022/12/23 06:59:13;;;;;;;70.53;20.50;;;6.50;99.90;;;;;;5065527;27;20095;-72
2022/12/23 07:01:39;;;;;;;48.10;18.23;;;6.50;99.90;;;;;;5094011;27;20050;-72
2022/12/23 07:04:05;;;;;;;48.92;18.73;;;6.50;99.90;;;;;;5072236;28;20612;-72
2022/12/23 07:06:31;;;;;;;51.20;19.38;;;6.50;99.90;;;;;;5083490;27;20051;-72
2022/12/23 07:08:56;;;;;;;49.60;18.45;;;6.50;99.90;;;;;;5081887;28;20067;-72
2022/12/23 07:11:22;;;;;;;45.33;16.85;;;6.50;99.90;;;;;;5070031;28;20055;-72
2022/12/23 07:13:48;;;;;;;48.38;18.83;;;6.50;99.90;;;;;;5051671;28;20064;-72
2022/12/23 07:16:14;;;;;;;48.67;19.23;;;6.50;99.90;;;;;;5057025;28;21818;-73
2022/12/23 07:18:39;;;;;;;47.60;18.38;;;6.50;99.90;;;;;;5061686;28;20047;-72
2022/12/23 07:21:05;;;;;;;47.88;17.90;;;6.50;99.90;;;;;;5074733;28;20062;-73
2022/12/23 07:23:31;;;;;;;55.00;17.92;;;6.50;99.90;;;;;;5079571;28;20061;-72
2022/12/23 07:25:57;;;;;;;46.78;18.23;;;6.50;99.90;;;;;;5059875;28;21068;-73
2022/12/23 07:28:24;;;;;;;44.33;17.60;;;6.50;99.90;;;;;;5053950;28;20040;-72
2022/12/23 07:30:50;;;;;;;44.13;16.52;;;6.50;99.90;;;;;;5075690;28;20076;-73
2022/12/23 07:33:15;;;;;;;46.50;16.48;;;6.50;99.90;;;;;;5049853;28;20079;-72
2022/12/23 07:35:41;;;;;;;45.58;17.05;;;6.50;99.90;;;;;;5071289;28;20136;-72
2022/12/23 07:38:07;;;;;;;43.38;16.77;;;6.50;99.90;;;;;;5071551;28;20047;-72
2022/12/23 07:40:33;;;;;;;41.25;17.20;;;6.50;99.90;;;;;;5047070;28;20116;-73
2022/12/23 07:43:00;;;;;;;37.72;16.35;;;6.70;99.90;;;;;;5074615;28;20048;-73
2022/12/23 07:45:27;;;;;;;41.90;16.77;;;6.50;99.90;;;;;;5056114;28;20078;-73
2022/12/23 07:47:53;;;;;;;43.53;17.45;;;6.50;99.90;;;;;;5074058;28;20040;-72
2022/12/23 07:50:19;;;;;;;40.45;16.25;;;6.50;99.90;;;;;;5064857;28;20108;-73
2022/12/23 07:52:45;;;;;;;44.28;18.23;;;6.50;99.90;;;;;;5042674;28;20039;-72
2022/12/23 07:55:11;;;;;;;40.85;16.60;;;6.50;99.90;;;;;;5057185;28;20071;-73
2022/12/23 07:57:38;;;;;;;40.47;17.08;;;6.60;99.90;;;;;;5060409;28;20043;-73
2022/12/23 08:00:11;;;;;;;42.55;16.58;;;6.90;99.90;;;;;;5081059;28;20838;-73
2022/12/23 08:02:41;;;;;;;38.72;16.25;;;6.50;99.90;;;;;;5080018;28;20044;-72
2022/12/23 08:05:09;;;;;;;42.72;17.02;;;6.50;99.90;;;;;;5073572;28;20052;-73
2022/12/23 08:07:35;;;;;;;36.53;16.17;;;6.50;99.90;;;;;;5051782;28;20054;-73
2022/12/23 08:10:01;;;;;;;36.97;15.73;;;6.60;99.90;;;;;;5053699;28;20040;-72
2022/12/23 08:12:26;;;;;;;44.30;15.07;;;6.50;99.90;;;;;;5093234;28;20823;-73
2022/12/23 08:14:52;;;;;;;30.90;13.65;;;6.50;99.90;;;;;;5093731;28;20047;-72
2022/12/23 08:17:21;;;;;;;36.25;14.35;;;6.50;99.90;;;;;;5074970;28;20073;-72
2022/12/23 08:19:48;;;;;;;32.08;14.55;;;6.90;99.90;;;;;;5057012;28;20051;-72
2022/12/23 08:22:14;;;;;;;32.92;13.77;;;6.60;99.90;;;;;;5081327;28;20040;-72
2022/12/23 08:24:39;;;;;;;30.00;12.40;;;6.60;99.90;;;;;;5061896;28;20059;-73
2022/12/23 08:27:06;;;;;;;30.00;12.30;;;6.60;99.90;;;;;;5098378;28;20067;-72
2022/12/23 08:29:31;;;;;;;29.92;12.68;;;6.50;99.90;;;;;;5079624;28;20675;-72
2022/12/23 08:31:57;;;;;;;30.27;12.70;;;6.60;99.90;;;;;;5079320;28;20042;-72
2022/12/23 08:34:23;;;;;;;30.90;13.02;;;6.60;99.90;;;;;;5065384;28;20915;-73
2022/12/23 08:36:49;;;;;;;30.67;11.90;;;6.60;99.90;;;;;;5104049;28;20036;-73
2022/12/23 08:39:16;;;;;;;32.08;12.00;;;6.60;99.90;;;;;;5078298;28;20040;-72
2022/12/23 08:41:45;;;;;;;29.70;11.88;;;6.70;99.90;;;;;;5097228;28;20174;-72
2022/12/23 08:44:13;;;;;;;26.17;11.45;;;6.60;99.90;;;;;;5069685;28;20131;-73
2022/12/23 08:46:40;;;;;;;29.63;11.77;;;6.60;99.90;;;;;;5093403;28;20036;-72
2022/12/23 08:49:06;;;;;;;26.08;11.23;;;6.60;99.90;;;;;;5054640;28;20987;-73
2022/12/23 08:51:32;;;;;;;29.73;12.27;;;6.60;99.90;;;;;;5064568;28;20120;-73
2022/12/23 08:53:59;;;;;;;30.38;11.93;;;6.60;99.90;;;;;;5054800;28;20039;-73
2022/12/23 08:56:27;;;;;;;30.55;11.60;;;6.60;99.90;;;;;;5052876;28;20051;-73
2022/12/23 08:58:54;;;;;;;29.38;11.48;;;6.60;99.90;;;;;;5043474;28;20620;-73
2022/12/23 09:01:22;;;;;;;30.75;12.85;;;6.60;99.90;;;;;;5069920;28;20858;-73
2022/12/23 09:03:49;;;;;;;29.58;12.18;;;6.60;99.90;;;;;;5056011;28;20047;-73
2022/12/23 09:06:18;;;;;;;27.75;12.80;;;6.70;99.90;;;;;;5052037;28;20872;-73
2022/12/23 09:08:44;;;;;;;30.38;12.75;;;6.70;99.90;;;;;;5070389;28;20079;-73
2022/12/23 09:11:18;;;;;;;36.05;14.13;;;6.70;99.90;;;;;;5050291;28;20764;-73
2022/12/23 09:13:45;;;;;;;35.20;14.05;;;6.70;99.90;;;;;;5060418;28;20052;-73
2022/12/23 09:16:11;;;;;;;36.95;13.88;;;6.70;99.90;;;;;;5044181;28;21072;-73
2022/12/23 09:18:37;;;;;;;37.40;14.73;;;6.70;99.90;;;;;;5062641;28;20085;-73
2022/12/23 09:21:14;;;;;;;36.72;13.30;;;6.70;99.90;;;;;;5051605;27;20767;-73
2022/12/23 09:23:40;;;;;;;33.78;14.30;;;6.70;99.90;;;;;;5067501;28;21657;-73
2022/12/23 09:26:08;;;;;;;37.20;14.48;;;6.70;99.90;;;;;;5046377;28;20499;-72
2022/12/23 09:28:34;;;;;;;42.38;16.75;;;6.70;99.90;;;;;;5078432;27;20069;-73
2022/12/23 09:31:07;;;;;;;39.90;15.25;;;6.80;99.90;;;;;;5066761;27;21538;-73
2022/12/23 09:33:34;;;;;;;42.55;16.42;;;6.80;99.90;;;;;;5046255;27;20871;-73
2022/12/23 09:36:00;;;;;;;37.65;15.55;;;6.80;99.90;;;;;;5065669;27;20090;-73
2022/12/23 09:38:26;;;;;;;37.22;15.68;;;6.80;99.90;;;;;;5060517;27;21228;-73
2022/12/23 09:40:52;;;;;;;46.28;16.27;;;6.80;99.90;;;;;;5062711;28;20136;-73
2022/12/23 09:43:42;;;;;;;40.10;16.08;;;6.80;99.90;;;;;;5042520;27;20215;-73
2022/12/23 09:46:28;;;;;;;42.80;16.30;;;6.80;99.90;;;;;;5082520;27;20459;-73
2022/12/23 09:48:59;;;;;;;40.47;16.83;;;6.80;99.90;;;;;;5037022;27;20052;-73
2022/12/23 09:51:27;;;;;;;43.53;16.27;;;6.90;99.90;;;;;;5043162;28;20151;-73
2022/12/23 09:54:03;;;;;;;45.35;17.63;;;6.90;99.90;;;;;;5051860;28;20165;-73
2022/12/23 09:56:47;;;;;;;48.47;17.48;;;6.90;99.90;;;;;;5074670;27;20059;-73
2022/12/23 09:59:31;;;;;;;43.33;15.90;;;6.90;99.90;;;;;;5075629;27;20151;-73
2022/12/23 10:02:32;;;;;;;46.65;17.15;;;7.00;99.90;;;;;;5056063;27;20060;-73
2022/12/23 10:05:15;;;;;;;45.88;17.08;;;6.90;99.90;;;;;;5065228;28;20466;-73
2022/12/23 10:08:10;;;;;;;46.35;16.10;;;6.90;99.90;;;;;;5052320;28;20056;-73
2022/12/23 10:10:40;;;;;;;95.90;17.63;;;7.00;99.90;;;;;;5061537;28;20146;-73
2022/12/23 10:13:20;;;;;;;40.53;15.70;;;6.90;99.90;;;;;;5063011;28;20823;-73
2022/12/23 10:15:48;;;;;;;45.53;17.40;;;7.00;99.90;;;;;;5043020;27;20105;-73
2022/12/23 10:18:30;;;;;;;53.05;16.38;;;6.90;99.90;;;;;;5034611;28;20047;-73
2022/12/23 10:21:02;;;;;;;42.53;15.73;;;7.00;99.90;;;;;;5065506;28;20052;-73
2022/12/23 10:23:41;;;;;;;38.90;15.57;;;7.00;99.90;;;;;;5036132;28;20444;-73
2022/12/23 10:26:20;;;;;;;41.33;15.52;;;7.00;99.90;;;;;;5039328;27;20056;-72
2022/12/23 10:28:46;;;;;;;41.28;15.95;;;7.10;99.90;;;;;;5057673;28;20051;-74
2022/12/23 10:31:18;;;;;;;59.28;17.80;;;7.00;99.90;;;;;;5047017;28;20101;-73
2022/12/23 10:33:43;;;;;;;61.53;17.73;;;7.00;99.90;;;;;;5051376;27;20852;-73
2022/12/23 10:36:22;;;;;;;47.85;16.65;;;7.00;99.90;;;;;;5081345;27;20047;-72
2022/12/23 10:38:48;;;;;;;47.33;16.42;;;7.00;99.90;;;;;;5059264;27;20043;-73
2022/12/23 10:41:46;;;;;;;37.90;15.07;;;7.00;99.90;;;;;;5062435;28;20047;-73
2022/12/23 10:44:52;;;;;;;43.13;15.63;;;7.00;99.90;;;;;;5016194;27;20595;-72
2022/12/23 10:47:33;;;;;;;46.00;16.00;;;7.00;99.90;;;;;;5050505;28;20155;-72
2022/12/23 10:50:10;;;;;;;34.25;15.00;;;7.00;99.90;;;;;;5061199;27;20120;-73
2022/12/23 10:52:39;;;;;;;39.13;14.57;;;7.20;99.90;;;;;;5060493;28;21028;-72
2022/12/23 10:55:12;;;;;;;39.45;15.27;;;7.00;99.90;;;;;;5061972;28;20048;-73
2022/12/23 10:57:38;;;;;;;44.95;15.68;;;7.00;99.90;;;;;;5080283;28;20160;-73
2022/12/23 11:00:20;;;;;;;44.15;16.10;;;7.00;99.90;;;;;;5062766;28;20055;-73
2022/12/23 11:03:15;;;;;;;34.13;14.27;;;7.00;99.90;;;;;;5079867;28;20108;-72
2022/12/23 11:05:42;;;;;;;40.60;15.57;;;7.00;99.90;;;;;;5045587;28;20048;-73
2022/12/23 11:08:09;;;;;;;43.00;15.20;;;7.00;99.90;;;;;;5059411;28;20079;-73
2022/12/23 11:10:35;;;;;;;39.60;15.98;;;7.00;99.90;;;;;;5044941;28;20058;-73
2022/12/23 11:13:01;;;;;;;37.20;14.35;;;7.00;99.90;;;;;;5061221;28;20052;-73
2022/12/23 11:15:35;;;;;;;38.65;15.30;;;7.00;99.90;;;;;;5076867;28;20036;-73
2022/12/23 11:18:10;;;;;;;35.85;15.30;;;7.20;99.90;;;;;;5060112;28;20079;-73
2022/12/23 11:20:40;;;;;;;34.38;14.30;;;7.00;99.90;;;;;;5058143;28;20055;-73
2022/12/23 11:23:24;;;;;;;34.63;14.60;;;7.10;99.90;;;;;;5058376;28;20056;-73
2022/12/23 11:26:18;;;;;;;38.15;14.98;;;7.00;99.90;;;;;;5058685;28;20047;-73
2022/12/23 11:28:51;;;;;;;36.35;15.43;;;7.10;99.90;;;;;;5055279;28;20039;-73
2022/12/23 11:31:25;;;;;;;36.63;14.82;;;7.10;99.90;;;;;;5075350;28;20048;-72
2022/12/23 11:33:58;;;;;;;39.72;15.43;;;7.10;99.90;;;;;;5044357;28;20632;-72
2022/12/23 11:36:26;;;;;;;41.50;18.05;;;7.10;99.90;;;;;;5035788;28;20046;-72
2022/12/23 11:39:23;;;;;;;39.97;16.95;;;7.20;99.90;;;;;;5037828;28;20181;-72
2022/12/23 11:42:01;;;;;;;35.95;15.43;;;7.10;99.90;;;;;;5059151;28;20040;-72
2022/12/23 11:44:42;;;;;;;41.47;14.93;;;7.10;99.90;;;;;;5049542;28;20066;-72
2022/12/23 11:47:21;;;;;;;39.20;14.88;;;7.20;99.90;;;;;;5054003;28;20044;-72
2022/12/23 11:49:48;;;;;;;41.60;15.18;;;7.20;99.90;;;;;;5056784;28;20074;-72
2022/12/23 11:52:18;;;;;;;36.05;14.25;;;7.20;99.90;;;;;;5043576;28;20550;-72
2022/12/23 11:54:55;;;;;;;36.43;14.27;;;7.20;99.90;;;;;;5041420;28;20048;-73
2022/12/23 11:57:28;;;;;;;44.17;15.80;;;7.20;99.90;;;;;;5072934;28;21424;-73
2022/12/23 12:00:01;;;;;;;32.60;13.95;;;7.20;99.90;;;;;;5063781;28;20054;-73
2022/12/23 12:02:39;;;;;;;42.53;14.68;;;7.20;99.90;;;;;;5063300;28;20059;-72
2022/12/23 12:05:33;;;;;;;35.55;14.40;;;7.20;99.90;;;;;;5056964;28;20051;-72
2022/12/23 12:08:04;;;;;;;34.50;14.88;;;7.20;99.90;;;;;;5074925;28;20068;-72
2022/12/23 12:10:34;;;;;;;30.67;13.52;;;7.20;99.90;;;;;;5052319;28;20177;-73
2022/12/23 12:13:05;;;;;;;31.65;14.00;;;7.20;99.90;;;;;;5075262;28;20052;-73
2022/12/23 12:15:57;;;;;;;33.45;13.88;;;7.20;99.90;;;;;;5034154;28;21958;-72
2022/12/23 12:18:23;;;;;;;35.53;13.95;;;7.20;99.90;;;;;;5006004;28;20149;-73
2022/12/23 12:20:57;;;;;;;36.45;13.57;;;7.20;99.90;;;;;;5074226;28;20850;-72
2022/12/23 12:23:41;;;;;;;37.60;14.15;;;7.60;99.90;;;;;;5058161;28;20062;-73
2022/12/23 12:26:34;;;;;;;37.78;14.18;;;7.20;99.90;;;;;;5051409;28;20039;-71
2022/12/23 12:29:39;;;;;;;31.52;13.30;;;7.20;99.90;;;;;;5010831;28;20074;-71
2022/12/23 12:32:29;;;;;;;32.60;13.25;;;7.20;99.90;;;;;;5044099;28;20079;-71
2022/12/23 12:35:00;;;;;;;33.85;12.68;;;7.20;99.90;;;;;;5058081;28;20130;-72
2022/12/23 12:37:42;;;;;;;34.65;13.02;;;7.20;99.90;;;;;;5066047;28;20054;-72
2022/12/23 12:40:27;;;;;;;35.30;13.25;;;7.20;99.90;;;;;;5046188;28;20044;-71
2022/12/23 12:43:18;;;;;;;35.80;14.13;;;7.20;99.90;;;;;;5061221;28;20065;-72
2022/12/23 12:45:57;;;;;;;;;;;7.20;99.90;;;;;;5062733;28;20044;-72
2022/12/23 12:48:29;;;;;;;33.22;12.65;;;7.20;99.90;;;;;;5050607;28;19927;-72
2022/12/23 12:51:16;;;;;;;32.75;12.63;;;7.20;99.90;;;;;;5080928;27;20053;-71
2022/12/23 12:54:04;;;;;;;31.83;13.10;;;7.30;99.90;;;;;;5058393;28;20109;-72
2022/12/23 12:56:37;;;;;;;33.35;12.55;;;7.30;99.90;;;;;;5074191;27;20048;-71
2022/12/23 12:59:03;;;;;;;28.88;13.18;;;7.30;99.90;;;;;;5050733;28;20167;-72
2022/12/23 13:01:43;;;;;;;30.55;12.63;;;7.30;99.90;;;;;;5058259;28;20052;-71
2022/12/23 13:04:36;;;;;;;32.45;14.20;;;7.30;99.90;;;;;;5056753;28;20765;-71
2022/12/23 13:07:22;;;;;;;33.80;12.63;;;7.20;99.90;;;;;;5061000;28;21068;-71
2022/12/23 13:09:55;;;;;;;40.08;14.45;;;7.30;99.90;;;;;;5045046;27;20051;-71
2022/12/23 13:12:47;;;;;;;30.77;13.55;;;7.70;99.90;;;;;;5059686;28;20166;-71
2022/12/23 13:15:22;;;;;;;32.95;13.20;;;7.30;99.90;;;;;;5061791;28;20079;-71
2022/12/23 13:17:56;;;;;;;35.50;14.07;;;7.30;99.90;;;;;;5043643;28;20047;-71
2022/12/23 13:20:40;;;;;;;33.03;14.18;;;7.30;99.90;;;;;;5063404;28;20066;-71
2022/12/23 13:23:18;;;;;;;35.05;14.77;;;7.30;99.90;;;;;;5066965;28;20058;-71
2022/12/23 13:25:49;;;;;;;34.25;14.52;;;7.30;99.90;;;;;;5094922;27;20070;-71